sensor_id;sensor_type;location;lat;lon;timestamp;P1;durP1;ratioP1;P2;durP2;ratioP2
32329;SDS011;18807;52.434;13.238;2022-09-09T00:03:05;4.65;;;4.25;;
32329;SDS011;18807;52.434;13.238;2022-09-09T00:10:45;4.47;;;4.07;;
32329;SDS011;18807;52.434;13.238;2022-09-09T00:18:27;5.80;;;4.35;;
32329;SDS011;18807;52.434;13.238;2022-09-09T00:26:08;6.50;;;4.45;;
32329;SDS011;18807;52.434;13.238;2022-09-09T00:33:47;6.18;;;5.10;;
32329;SDS011;18807;52.434;13.238;2022-09-09T00:41:25;4.68;;;4.10;;
32329;SDS011;18807;52.434;13.238;2022-09-09T00:49:11;6.17;;;4.30;;
32329;SDS011;18807;52.434;13.238;2022-09-09T00:56:55;4.47;;;4.03;;
32329;SDS011;18807;52.434;13.238;2022-09-09T01:04:41;5.05;;;4.22;;
32329;SDS011;18807;52.434;13.238;2022-09-09T01:12:17;6.18;;;4.82;;
32329;SDS011;18807;52.434;13.238;2022-09-09T01:20:02;5.03;;;4.53;;
32329;SDS011;18807;52.434;13.238;2022-09-09T01:27:41;5.38;;;4.85;;
32329;SDS011;18807;52.434;13.238;2022-09-09T01:35:22;4.60;;;4.15;;
32329;SDS011;18807;52.434;13.238;2022-09-09T01:43:07;5.07;;;4.22;;
32329;SDS011;18807;52.434;13.238;2022-09-09T01:58:20;4.65;;;4.25;;
32329;SDS011;18807;52.434;13.238;2022-09-09T02:06:05;4.97;;;4.30;;
32329;SDS011;18807;52.434;13.238;2022-09-09T02:13:51;5.32;;;4.63;;
32329;SDS011;18807;52.434;13.238;2022-09-09T02:21:28;5.68;;;4.82;;
32329;SDS011;18807;52.434;13.238;2022-09-09T02:29:05;5.40;;;4.43;;
32329;SDS011;18807;52.434;13.238;2022-09-09T02:36:43;5.45;;;4.68;;
32329;SDS011;18807;52.434;13.238;2022-09-09T02:44:20;5.28;;;4.65;;
32329;SDS011;18807;52.434;13.238;2022-09-09T02:51:56;5.30;;;4.80;;
32329;SDS011;18807;52.434;13.238;2022-09-09T02:59:36;7.22;;;4.40;;
32329;SDS011;18807;52.434;13.238;2022-09-09T03:07:09;5.53;;;4.47;;
32329;SDS011;18807;52.434;13.238;2022-09-09T03:14:45;5.33;;;4.60;;
32329;SDS011;18807;52.434;13.238;2022-09-09T03:22:19;4.65;;;4.20;;
32329;SDS011;18807;52.434;13.238;2022-09-09T03:29:54;5.05;;;4.20;;
32329;SDS011;18807;52.434;13.238;2022-09-09T03:37:28;4.97;;;3.90;;
32329;SDS011;18807;52.434;13.238;2022-09-09T03:45:03;8.02;;;4.63;;
32329;SDS011;18807;52.434;13.238;2022-09-09T03:52:39;6.45;;;4.35;;
32329;SDS011;18807;52.434;13.238;2022-09-09T04:00:15;5.38;;;4.75;;
32329;SDS011;18807;52.434;13.238;2022-09-09T04:07:49;8.02;;;5.63;;
32329;SDS011;18807;52.434;13.238;2022-09-09T04:15:25;6.68;;;4.40;;
32329;SDS011;18807;52.434;13.238;2022-09-09T04:22:58;6.35;;;4.72;;
32329;SDS011;18807;52.434;13.238;2022-09-09T04:30:34;6.10;;;4.97;;
32329;SDS011;18807;52.434;13.238;2022-09-09T04:38:08;5.38;;;4.55;;
32329;SDS011;18807;52.434;13.238;2022-09-09T04:45:43;7.18;;;4.65;;
32329;SDS011;18807;52.434;13.238;2022-09-09T04:53:17;5.20;;;4.43;;
32329;SDS011;18807;52.434;13.238;2022-09-09T05:00:52;6.50;;;5.13;;
32329;SDS011;18807;52.434;13.238;2022-09-09T05:08:26;6.53;;;5.03;;
32329;SDS011;18807;52.434;13.238;2022-09-09T05:16:01;5.15;;;4.60;;
32329;SDS011;18807;52.434;13.238;2022-09-09T05:23:35;9.52;;;4.38;;
32329;SDS011;18807;52.434;13.238;2022-09-09T05:31:11;6.40;;;4.33;;
32329;SDS011;18807;52.434;13.238;2022-09-09T05:38:46;5.07;;;4.57;;
32329;SDS011;18807;52.434;13.238;2022-09-09T05:46:23;6.30;;;5.10;;
32329;SDS011;18807;52.434;13.238;2022-09-09T05:53:58;5.97;;;5.10;;
32329;SDS011;18807;52.434;13.238;2022-09-09T06:01:34;7.78;;;4.85;;
32329;SDS011;18807;52.434;13.238;2022-09-09T06:09:13;5.93;;;4.60;;
32329;SDS011;18807;52.434;13.238;2022-09-09T06:16:48;10.33;;;4.57;;
32329;SDS011;18807;52.434;13.238;2022-09-09T06:24:22;6.05;;;4.43;;
32329;SDS011;18807;52.434;13.238;2022-09-09T06:31:57;4.15;;;3.75;;
32329;SDS011;18807;52.434;13.238;2022-09-09T06:39:31;5.00;;;3.83;;
32329;SDS011;18807;52.434;13.238;2022-09-09T06:47:07;5.17;;;3.70;;
32329;SDS011;18807;52.434;13.238;2022-09-09T07:02:15;4.60;;;3.70;;
32329;SDS011;18807;52.434;13.238;2022-09-09T07:09:49;4.93;;;3.40;;
32329;SDS011;18807;52.434;13.238;2022-09-09T07:17:24;5.05;;;3.47;;
32329;SDS011;18807;52.434;13.238;2022-09-09T07:32:33;6.85;;;4.45;;
32329;SDS011;18807;52.434;13.238;2022-09-09T07:47:42;5.40;;;3.25;;
32329;SDS011;18807;52.434;13.238;2022-09-09T08:02:50;3.35;;;2.67;;
32329;SDS011;18807;52.434;13.238;2022-09-09T08:10:26;5.65;;;2.70;;
32329;SDS011;18807;52.434;13.238;2022-09-09T08:18:01;2.72;;;2.30;;
32329;SDS011;18807;52.434;13.238;2022-09-09T08:25:36;4.00;;;2.22;;
32329;SDS011;18807;52.434;13.238;2022-09-09T08:33:11;6.53;;;2.63;;
32329;SDS011;18807;52.434;13.238;2022-09-09T08:48:29;3.67;;;2.08;;
32329;SDS011;18807;52.434;13.238;2022-09-09T08:56:16;2.75;;;1.95;;
32329;SDS011;18807;52.434;13.238;2022-09-09T09:03:57;5.05;;;1.77;;
32329;SDS011;18807;52.434;13.238;2022-09-09T09:11:37;3.35;;;1.88;;
32329;SDS011;18807;52.434;13.238;2022-09-09T09:19:14;2.53;;;1.75;;
32329;SDS011;18807;52.434;13.238;2022-09-09T09:26:50;4.32;;;2.45;;
32329;SDS011;18807;52.434;13.238;2022-09-09T09:34:26;3.83;;;2.10;;
32329;SDS011;18807;52.434;13.238;2022-09-09T09:42:07;1.75;;;1.30;;
32329;SDS011;18807;52.434;13.238;2022-09-09T09:49:52;4.18;;;1.67;;
32329;SDS011;18807;52.434;13.238;2022-09-09T09:57:28;3.22;;;1.50;;
32329;SDS011;18807;52.434;13.238;2022-09-09T10:05:08;2.25;;;1.30;;
32329;SDS011;18807;52.434;13.238;2022-09-09T10:12:50;2.30;;;1.25;;
32329;SDS011;18807;52.434;13.238;2022-09-09T10:20:37;3.47;;;1.70;;
32329;SDS011;18807;52.434;13.238;2022-09-09T10:28:21;2.28;;;1.50;;
32329;SDS011;18807;52.434;13.238;2022-09-09T10:36:09;2.25;;;1.38;;
32329;SDS011;18807;52.434;13.238;2022-09-09T10:43:53;3.45;;;1.10;;
32329;SDS011;18807;52.434;13.238;2022-09-09T10:51:42;5.13;;;1.50;;
32329;SDS011;18807;52.434;13.238;2022-09-09T10:59:26;3.47;;;1.58;;
32329;SDS011;18807;52.434;13.238;2022-09-09T11:07:06;3.72;;;1.42;;
32329;SDS011;18807;52.434;13.238;2022-09-09T11:14:44;2.22;;;1.33;;
32329;SDS011;18807;52.434;13.238;2022-09-09T11:22:25;1.83;;;0.80;;
32329;SDS011;18807;52.434;13.238;2022-09-09T11:30:05;2.13;;;0.85;;
32329;SDS011;18807;52.434;13.238;2022-09-09T11:38:18;3.92;;;1.55;;
32329;SDS011;18807;52.434;13.238;2022-09-09T11:45:55;2.65;;;0.80;;
32329;SDS011;18807;52.434;13.238;2022-09-09T11:53:34;1.92;;;0.75;;
32329;SDS011;18807;52.434;13.238;2022-09-09T12:01:15;2.45;;;1.17;;
32329;SDS011;18807;52.434;13.238;2022-09-09T12:09:07;2.28;;;0.70;;
32329;SDS011;18807;52.434;13.238;2022-09-09T12:16:46;2.42;;;0.80;;
32329;SDS011;18807;52.434;13.238;2022-09-09T12:24:23;3.50;;;0.70;;
32329;SDS011;18807;52.434;13.238;2022-09-09T12:32:06;2.63;;;1.10;;
32329;SDS011;18807;52.434;13.238;2022-09-09T12:39:44;4.65;;;1.10;;
32329;SDS011;18807;52.434;13.238;2022-09-09T12:47:22;2.72;;;0.80;;
32329;SDS011;18807;52.434;13.238;2022-09-09T12:55:04;2.38;;;0.90;;
32329;SDS011;18807;52.434;13.238;2022-09-09T13:02:50;1.58;;;0.77;;
32329;SDS011;18807;52.434;13.238;2022-09-09T13:10:26;2.60;;;1.10;;
32329;SDS011;18807;52.434;13.238;2022-09-09T13:18:21;1.52;;;0.85;;
32329;SDS011;18807;52.434;13.238;2022-09-09T13:25:59;2.30;;;1.15;;
32329;SDS011;18807;52.434;13.238;2022-09-09T13:33:35;1.95;;;0.80;;
32329;SDS011;18807;52.434;13.238;2022-09-09T13:41:18;2.08;;;1.25;;
32329;SDS011;18807;52.434;13.238;2022-09-09T13:48:54;0.90;;;0.80;;
32329;SDS011;18807;52.434;13.238;2022-09-09T13:56:30;3.95;;;1.30;;
32329;SDS011;18807;52.434;13.238;2022-09-09T14:04:05;3.88;;;1.05;;
32329;SDS011;18807;52.434;13.238;2022-09-09T14:11:40;0.70;;;0.70;;
32329;SDS011;18807;52.434;13.238;2022-09-09T14:19:14;0.80;;;0.80;;
32329;SDS011;18807;52.434;13.238;2022-09-09T14:26:49;3.00;;;0.70;;
32329;SDS011;18807;52.434;13.238;2022-09-09T14:34:23;1.63;;;0.82;;
32329;SDS011;18807;52.434;13.238;2022-09-09T14:41:58;1.85;;;1.38;;
32329;SDS011;18807;52.434;13.238;2022-09-09T14:49:32;2.28;;;0.88;;
32329;SDS011;18807;52.434;13.238;2022-09-09T14:57:07;1.98;;;0.70;;
32329;SDS011;18807;52.434;13.238;2022-09-09T15:04:41;1.90;;;0.80;;
32329;SDS011;18807;52.434;13.238;2022-09-09T15:12:16;1.30;;;0.98;;
32329;SDS011;18807;52.434;13.238;2022-09-09T15:19:51;2.47;;;0.82;;
32329;SDS011;18807;52.434;13.238;2022-09-09T15:27:26;1.48;;;0.82;;
32329;SDS011;18807;52.434;13.238;2022-09-09T15:35:00;13.15;;;5.55;;
32329;SDS011;18807;52.434;13.238;2022-09-09T15:42:35;9.97;;;4.47;;
32329;SDS011;18807;52.434;13.238;2022-09-09T15:50:09;3.17;;;2.00;;
32329;SDS011;18807;52.434;13.238;2022-09-09T15:57:44;2.72;;;1.08;;
32329;SDS011;18807;52.434;13.238;2022-09-09T16:05:18;1.60;;;1.00;;
32329;SDS011;18807;52.434;13.238;2022-09-09T16:12:54;1.75;;;1.10;;
32329;SDS011;18807;52.434;13.238;2022-09-09T16:20:28;3.70;;;1.10;;
32329;SDS011;18807;52.434;13.238;2022-09-09T16:28:03;3.30;;;1.10;;
32329;SDS011;18807;52.434;13.238;2022-09-09T16:35:38;2.70;;;1.10;;
32329;SDS011;18807;52.434;13.238;2022-09-09T16:50:48;2.60;;;1.30;;
32329;SDS011;18807;52.434;13.238;2022-09-09T16:58:23;1.83;;;1.00;;
32329;SDS011;18807;52.434;13.238;2022-09-09T17:05:57;1.20;;;0.90;;
32329;SDS011;18807;52.434;13.238;2022-09-09T17:13:35;1.33;;;1.10;;
32329;SDS011;18807;52.434;13.238;2022-09-09T17:21:09;1.98;;;1.08;;
32329;SDS011;18807;52.434;13.238;2022-09-09T17:28:47;2.00;;;1.10;;
32329;SDS011;18807;52.434;13.238;2022-09-09T17:36:22;2.08;;;0.93;;
32329;SDS011;18807;52.434;13.238;2022-09-09T17:44:00;2.97;;;1.00;;
32329;SDS011;18807;52.434;13.238;2022-09-09T17:51:36;1.63;;;1.00;;
32329;SDS011;18807;52.434;13.238;2022-09-09T17:59:11;2.17;;;1.10;;
32329;SDS011;18807;52.434;13.238;2022-09-09T18:06:47;3.15;;;0.90;;
32329;SDS011;18807;52.434;13.238;2022-09-09T18:14:24;1.10;;;0.73;;
32329;SDS011;18807;52.434;13.238;2022-09-09T18:21:59;1.60;;;0.85;;
32329;SDS011;18807;52.434;13.238;2022-09-09T18:29:35;1.02;;;0.68;;
32329;SDS011;18807;52.434;13.238;2022-09-09T18:44:44;2.17;;;1.02;;
32329;SDS011;18807;52.434;13.238;2022-09-09T18:52:18;3.13;;;0.98;;
32329;SDS011;18807;52.434;13.238;2022-09-09T18:59:53;1.90;;;0.82;;
32329;SDS011;18807;52.434;13.238;2022-09-09T19:07:27;1.48;;;0.90;;
32329;SDS011;18807;52.434;13.238;2022-09-09T19:15:02;3.17;;;1.50;;
32329;SDS011;18807;52.434;13.238;2022-09-09T19:22:37;3.47;;;1.20;;
32329;SDS011;18807;52.434;13.238;2022-09-09T19:30:12;2.00;;;1.33;;
32329;SDS011;18807;52.434;13.238;2022-09-09T19:37:46;3.03;;;1.38;;
32329;SDS011;18807;52.434;13.238;2022-09-09T19:45:21;4.57;;;1.15;;
32329;SDS011;18807;52.434;13.238;2022-09-09T19:52:55;1.83;;;1.10;;
32329;SDS011;18807;52.434;13.238;2022-09-09T20:00:30;4.93;;;1.00;;
32329;SDS011;18807;52.434;13.238;2022-09-09T20:08:10;1.08;;;0.80;;
32329;SDS011;18807;52.434;13.238;2022-09-09T20:15:46;1.55;;;0.90;;
32329;SDS011;18807;52.434;13.238;2022-09-09T20:23:28;1.95;;;0.90;;
32329;SDS011;18807;52.434;13.238;2022-09-09T20:31:04;2.23;;;0.70;;
32329;SDS011;18807;52.434;13.238;2022-09-09T20:38:42;1.02;;;0.80;;
32329;SDS011;18807;52.434;13.238;2022-09-09T20:46:18;1.08;;;0.88;;
32329;SDS011;18807;52.434;13.238;2022-09-09T20:53:53;1.10;;;0.73;;
32329;SDS011;18807;52.434;13.238;2022-09-09T21:01:29;1.10;;;1.00;;
32329;SDS011;18807;52.434;13.238;2022-09-09T21:09:03;3.38;;;0.98;;
32329;SDS011;18807;52.434;13.238;2022-09-09T21:16:39;1.23;;;1.00;;
32329;SDS011;18807;52.434;13.238;2022-09-09T21:24:13;1.45;;;1.13;;
32329;SDS011;18807;52.434;13.238;2022-09-09T21:31:48;2.88;;;1.08;;
32329;SDS011;18807;52.434;13.238;2022-09-09T21:39:22;1.70;;;1.10;;
32329;SDS011;18807;52.434;13.238;2022-09-09T21:46:57;1.08;;;0.90;;
32329;SDS011;18807;52.434;13.238;2022-09-09T21:54:31;1.45;;;1.17;;
32329;SDS011;18807;52.434;13.238;2022-09-09T22:02:06;5.10;;;1.30;;
32329;SDS011;18807;52.434;13.238;2022-09-09T22:09:41;1.73;;;1.08;;
32329;SDS011;18807;52.434;13.238;2022-09-09T22:17:16;1.67;;;1.10;;
32329;SDS011;18807;52.434;13.238;2022-09-09T22:32:25;3.45;;;1.45;;
32329;SDS011;18807;52.434;13.238;2022-09-09T22:39:58;3.00;;;1.52;;
32329;SDS011;18807;52.434;13.238;2022-09-09T22:47:34;1.67;;;1.17;;
32329;SDS011;18807;52.434;13.238;2022-09-09T22:55:09;2.20;;;1.23;;
32329;SDS011;18807;52.434;13.238;2022-09-09T23:02:44;2.70;;;1.65;;
32329;SDS011;18807;52.434;13.238;2022-09-09T23:10:21;4.15;;;1.27;;
32329;SDS011;18807;52.434;13.238;2022-09-09T23:17:56;2.08;;;1.60;;
32329;SDS011;18807;52.434;13.238;2022-09-09T23:25:30;3.30;;;1.60;;
32329;SDS011;18807;52.434;13.238;2022-09-09T23:33:05;3.95;;;1.80;;
32329;SDS011;18807;52.434;13.238;2022-09-09T23:40:39;2.78;;;1.92;;
32329;SDS011;18807;52.434;13.238;2022-09-09T23:48:14;4.50;;;1.73;;
32329;SDS011;18807;52.434;13.238;2022-09-09T23:55:48;3.03;;;1.90;;
